createdAt,value
2022-10-19T00:04:03.633Z,5
2022-10-19T00:14:05.116Z,4.8
2022-10-19T00:24:07.564Z,4.7
2022-10-19T00:34:09.480Z,4.6
2022-10-19T00:44:11.770Z,4.3
2022-10-19T00:54:13.479Z,4.3
2022-10-19T01:14:17.566Z,4
2022-10-19T01:24:19.595Z,4.1
2022-10-19T01:34:21.674Z,3.9
2022-10-19T01:44:23.740Z,3.8
2022-10-19T01:54:26.246Z,3.9
2022-10-19T02:04:28.708Z,3.7
2022-10-19T02:24:33.159Z,3.8
2022-10-19T02:34:35.507Z,3.8
2022-10-19T02:44:37.239Z,4.1
2022-10-19T02:54:39.044Z,4.3
2022-10-19T02:55:00.977Z,4.3
2022-10-19T03:04:48.599Z,4.1
2022-10-19T03:14:50.610Z,4.2
2022-10-19T03:24:52.668Z,4.1
2022-10-19T03:34:54.387Z,4
2022-10-19T03:44:56.075Z,3.8
2022-10-19T04:05:00.033Z,3.8
2022-10-19T04:15:02.062Z,3.8
2022-10-19T04:25:03.923Z,3.6
2022-10-19T04:35:06.077Z,3.4
2022-10-19T04:45:07.943Z,3.4
2022-10-19T04:55:09.661Z,3.2
2022-10-19T05:05:11.438Z,3.6
2022-10-19T05:15:13.950Z,3.7
2022-10-19T05:25:15.886Z,3.8
2022-10-19T05:35:20.008Z,4
2022-10-19T05:45:19.869Z,4.3
2022-10-19T06:05:24.423Z,4.5
2022-10-19T06:15:26.866Z,4.7
2022-10-19T06:25:29.049Z,5
2022-10-19T06:35:31.270Z,5.2
2022-10-19T06:45:35.958Z,5.2
2022-10-19T06:55:35.813Z,5.3
2022-10-19T07:05:38.360Z,5.2
2022-10-19T07:15:40.637Z,5.2
2022-10-19T07:25:42.332Z,5.4
2022-10-19T07:35:44.622Z,5.7
2022-10-19T07:45:46.683Z,6.1
2022-10-19T07:55:48.348Z,6.3
2022-10-19T08:05:50.899Z,6.2
2022-10-19T08:15:52.539Z,6.5
2022-10-19T08:25:55.054Z,7
2022-10-19T08:35:57.391Z,7.2
2022-10-19T08:45:59.829Z,7.6
2022-10-19T08:56:04.399Z,7.9
2022-10-19T09:16:05.846Z,8.9
2022-10-19T09:26:08.198Z,9.2
2022-10-19T09:36:15.006Z,9.8
2022-10-19T09:46:19.632Z,10.5
2022-10-19T09:56:14.715Z,11.4
2022-10-19T10:06:17.257Z,12
2022-10-19T10:16:19.534Z,12.5
2022-10-19T10:26:21.510Z,12.4
2022-10-19T10:36:23.983Z,12.7
2022-10-19T10:46:26.391Z,13
2022-10-19T10:56:28.150Z,13
2022-10-19T11:06:30.640Z,13.1
2022-10-19T11:16:33.209Z,13.1
2022-10-19T11:26:35.475Z,13.1
2022-10-19T11:36:37.281Z,13.3
2022-10-19T11:46:39.703Z,13.4
2022-10-19T11:56:58.472Z,13.6
2022-10-19T12:06:43.875Z,13.4
2022-10-19T12:16:45.814Z,14.1
2022-10-19T12:26:47.772Z,14.1
2022-10-19T12:36:50.107Z,14.4
2022-10-19T12:56:53.970Z,14.8
2022-10-19T13:06:55.822Z,15.2
2022-10-19T13:16:58.027Z,15.3
2022-10-19T13:27:00.392Z,15
2022-10-19T13:37:02.699Z,15
2022-10-19T13:47:04.772Z,14.5
2022-10-19T13:57:07.423Z,15
2022-10-19T14:07:09.682Z,14.7
2022-10-19T14:17:11.369Z,14.3
2022-10-19T14:27:13.981Z,13.6
2022-10-19T14:37:16.402Z,13.5
2022-10-19T14:57:20.972Z,13.3
2022-10-19T15:07:23.236Z,13.2
2022-10-19T15:17:24.960Z,13
2022-10-19T15:27:26.950Z,12.7
2022-10-19T15:37:28.649Z,12.5
2022-10-19T15:47:30.358Z,12.4
2022-10-19T15:57:33.184Z,12.2
2022-10-19T16:07:35.636Z,12.1
2022-10-19T16:17:37.746Z,11.6
2022-10-19T16:27:39.761Z,11.5
2022-10-19T16:37:42.050Z,11.2
2022-10-19T16:47:43.910Z,11
2022-10-19T16:57:45.713Z,11
2022-10-19T17:07:47.603Z,10.7
2022-10-19T17:17:49.549Z,10.7
2022-10-19T17:27:51.448Z,10.4
2022-10-19T17:37:53.860Z,10.3
2022-10-19T17:47:56.175Z,10.2
2022-10-19T17:57:58.737Z,10.1
2022-10-19T18:08:01.371Z,9.9
2022-10-19T18:18:03.817Z,9.6
2022-10-19T18:28:05.871Z,9.6
2022-10-19T18:38:08.126Z,9.6
2022-10-19T18:48:10.492Z,9.5
2022-10-19T18:58:12.182Z,9.4
2022-10-19T19:08:14.311Z,9.2
2022-10-19T19:28:19.281Z,8.7
2022-10-19T19:38:21.298Z,8.9
2022-10-19T19:48:23.122Z,8.8
2022-10-19T19:58:25.007Z,8.6
2022-10-19T20:08:27.406Z,8.3
2022-10-19T20:18:29.101Z,8.2
2022-10-19T20:28:31.584Z,8.3
2022-10-19T20:38:33.404Z,7.9
2022-10-19T20:58:37.578Z,6.8
2022-10-19T21:08:40.181Z,6.9
2022-10-19T21:18:42.423Z,6.7
2022-10-19T21:28:44.399Z,7.2
2022-10-19T21:38:46.906Z,7.1
2022-10-19T21:48:49.162Z,7.2
2022-10-19T21:58:50.872Z,6.8
2022-10-19T22:08:53.219Z,6.7
2022-10-19T22:18:55.078Z,6.4
2022-10-19T22:28:57.463Z,6.4
2022-10-19T22:39:00.036Z,6.1
2022-10-19T22:49:02.141Z,5.9
2022-10-19T23:09:05.759Z,5.7
2022-10-19T23:19:07.897Z,5.5
2022-10-19T23:29:09.666Z,5.4
2022-10-19T23:39:11.913Z,5.3
2022-10-19T23:49:13.908Z,5.1
2022-10-19T23:59:16.292Z,5.1
